createdAt,value
2018-09-11T00:02:14.589Z,17.40
2018-09-11T00:04:43.000Z,17.30
2018-09-11T00:07:11.407Z,17.30
2018-09-11T00:09:39.793Z,17.40
2018-09-11T00:12:08.124Z,17.40
2018-09-11T00:14:36.502Z,17.40
2018-09-11T00:17:05.120Z,17.30
2018-09-11T00:19:33.528Z,17.30
2018-09-11T00:22:01.927Z,17.20
2018-09-11T00:24:30.279Z,17.20
2018-09-11T00:26:58.690Z,17.30
2018-09-11T00:29:27.105Z,17.30
2018-09-11T00:31:55.483Z,17.30
2018-09-11T00:34:23.885Z,17.30
2018-09-11T00:36:52.243Z,17.20
2018-09-11T00:39:20.690Z,17.20
2018-09-11T00:41:49.418Z,17.10
2018-09-11T00:44:17.885Z,17.10
2018-09-11T00:46:46.225Z,17.10
2018-09-11T00:49:14.629Z,17.10
2018-09-11T00:51:43.051Z,17.10
2018-09-11T00:54:11.399Z,17.10
2018-09-11T00:56:39.830Z,17.10
2018-09-11T00:59:08.196Z,17.00
2018-09-11T01:01:36.565Z,17.10
2018-09-11T01:04:05.266Z,17.10
2018-09-11T01:06:33.663Z,17.20
2018-09-11T01:09:02.100Z,17.10
2018-09-11T01:11:30.467Z,17.00
2018-09-11T01:13:58.955Z,17.10
2018-09-11T01:16:27.331Z,17.00
2018-09-11T01:18:55.727Z,17.10
2018-09-11T01:21:24.193Z,17.10
2018-09-11T01:23:52.535Z,17.00
2018-09-11T01:26:20.980Z,16.90
2018-09-11T01:28:49.433Z,16.90
2018-09-11T01:31:17.862Z,16.90
2018-09-11T01:33:46.249Z,17.00
2018-09-11T01:36:14.679Z,17.00
2018-09-11T01:38:43.098Z,17.00
2018-09-11T01:41:11.475Z,16.90
2018-09-11T01:43:39.923Z,17.00
2018-09-11T01:46:08.408Z,16.90
2018-09-11T01:48:36.837Z,17.00
2018-09-11T01:51:05.228Z,16.90
2018-09-11T01:53:33.591Z,16.90
2018-09-11T01:56:01.957Z,17.00
2018-09-11T01:58:30.299Z,17.00
2018-09-11T02:00:58.641Z,16.90
2018-09-11T02:03:27.079Z,16.80
2018-09-11T02:05:55.377Z,16.80
2018-09-11T02:08:23.777Z,16.90
2018-09-11T02:10:52.252Z,16.90
2018-09-11T02:13:20.614Z,16.80
2018-09-11T02:15:48.988Z,16.80
2018-09-11T02:18:17.369Z,16.70
2018-09-11T02:20:45.761Z,16.70
2018-09-11T02:23:14.062Z,16.70
2018-09-11T02:25:42.408Z,16.70
2018-09-11T02:28:10.778Z,16.60
2018-09-11T02:30:39.109Z,16.60
2018-09-11T02:33:07.411Z,16.40
2018-09-11T02:35:35.779Z,16.40
2018-09-11T02:38:04.377Z,16.40
2018-09-11T02:40:32.750Z,16.40
2018-09-11T02:43:01.112Z,16.40
2018-09-11T02:45:29.536Z,16.30
2018-09-11T02:47:57.835Z,16.30
2018-09-11T02:50:26.278Z,16.30
2018-09-11T02:52:54.643Z,16.30
2018-09-11T02:55:23.075Z,16.30
2018-09-11T02:57:51.499Z,16.20
2018-09-11T03:00:20.017Z,16.30
2018-09-11T03:02:48.414Z,16.20
2018-09-11T03:05:16.745Z,16.10
2018-09-11T03:07:45.151Z,16.00
2018-09-11T03:10:13.528Z,16.00
2018-09-11T03:12:41.916Z,16.00
2018-09-11T03:15:10.359Z,16.00
2018-09-11T03:17:38.783Z,16.00
2018-09-11T03:20:07.225Z,16.00
2018-09-11T03:22:35.633Z,16.00
2018-09-11T03:25:04.071Z,15.90
2018-09-11T03:27:32.437Z,15.90
2018-09-11T03:30:00.831Z,15.90
2018-09-11T03:32:29.229Z,15.80
2018-09-11T03:34:57.555Z,15.90
2018-09-11T03:37:25.955Z,15.80
2018-09-11T03:39:54.397Z,15.70
2018-09-11T03:42:22.765Z,15.70
2018-09-11T03:44:51.159Z,15.70
2018-09-11T03:47:19.487Z,15.60
2018-09-11T03:49:47.868Z,15.60
2018-09-11T03:52:16.411Z,15.60
2018-09-11T03:54:44.779Z,15.50
2018-09-11T03:57:13.175Z,15.50
2018-09-11T03:59:41.539Z,15.40
2018-09-11T04:02:10.085Z,15.40
2018-09-11T04:04:38.448Z,15.40
2018-09-11T04:07:06.854Z,15.40
2018-09-11T04:09:35.294Z,15.50
2018-09-11T04:12:04.127Z,15.50
2018-09-11T04:14:32.525Z,15.40
2018-09-11T04:17:00.859Z,15.50
2018-09-11T04:19:29.233Z,15.50
2018-09-11T04:21:57.590Z,15.40
2018-09-11T04:24:25.901Z,15.40
2018-09-11T04:26:54.245Z,15.40
2018-09-11T04:29:22.704Z,15.40
2018-09-11T04:31:51.189Z,15.40
2018-09-11T04:34:19.485Z,15.30
2018-09-11T04:36:47.848Z,15.30
2018-09-11T04:39:16.240Z,15.40
2018-09-11T04:41:44.561Z,15.30
2018-09-11T04:44:13.033Z,15.40
2018-09-11T04:46:41.333Z,15.40
2018-09-11T04:49:09.725Z,15.30
2018-09-11T04:51:38.029Z,15.30
2018-09-11T04:54:06.367Z,15.30
2018-09-11T04:56:34.752Z,15.20
2018-09-11T04:59:03.171Z,15.20
2018-09-11T05:01:31.559Z,15.40
2018-09-11T05:03:59.929Z,15.60
2018-09-11T05:06:28.361Z,15.60
2018-09-11T05:08:56.749Z,15.60
2018-09-11T05:11:25.217Z,15.40
2018-09-11T05:13:53.563Z,15.50
2018-09-11T05:16:21.959Z,15.50
2018-09-11T05:18:50.371Z,15.50
2018-09-11T05:21:18.660Z,15.50
2018-09-11T05:23:47.008Z,15.50
2018-09-11T05:26:15.326Z,15.60
2018-09-11T05:28:43.659Z,15.60
2018-09-11T05:31:12.016Z,15.50
2018-09-11T05:33:40.393Z,15.60
2018-09-11T05:36:08.819Z,15.70
2018-09-11T05:38:37.701Z,15.70
2018-09-11T05:41:06.255Z,15.80
2018-09-11T05:43:34.636Z,15.80
2018-09-11T05:46:03.104Z,15.90
2018-09-11T05:48:31.523Z,16.00
2018-09-11T05:51:00.065Z,16.00
2018-09-11T05:53:28.548Z,16.10
2018-09-11T05:55:56.909Z,16.20
2018-09-11T05:58:25.372Z,16.20
2018-09-11T06:00:53.694Z,16.50
2018-09-11T06:03:22.264Z,16.50
2018-09-11T06:05:51.406Z,16.70
2018-09-11T06:08:21.317Z,16.80
2018-09-11T06:10:49.663Z,17.00
2018-09-11T06:13:18.085Z,17.30
2018-09-11T06:15:46.450Z,17.70
2018-09-11T06:18:15.496Z,18.10
2018-09-11T06:20:44.099Z,18.40
2018-09-11T06:23:12.571Z,19.10
2018-09-11T06:25:40.997Z,20.20
2018-09-11T06:28:09.450Z,21.40
2018-09-11T06:30:38.372Z,22.40
2018-09-11T06:33:06.754Z,23.30
2018-09-11T06:35:36.067Z,24.40
2018-09-11T06:38:04.411Z,24.70
2018-09-11T06:40:32.766Z,25.10
2018-09-11T06:43:01.200Z,25.40
2018-09-11T06:45:29.781Z,25.40
2018-09-11T06:47:58.143Z,25.70
2018-09-11T06:50:26.574Z,25.90
2018-09-11T06:52:54.956Z,25.60
2018-09-11T06:55:23.297Z,24.80
2018-09-11T06:57:51.714Z,24.10
2018-09-11T07:00:20.108Z,23.50
2018-09-11T07:02:48.505Z,23.00
2018-09-11T07:05:16.916Z,22.70
2018-09-11T07:07:45.635Z,22.60
2018-09-11T07:10:14.210Z,22.90
2018-09-11T07:12:42.613Z,23.30
2018-09-11T07:15:10.948Z,23.90
2018-09-11T07:17:41.469Z,25.40
2018-09-11T07:20:10.756Z,27.00
2018-09-11T07:22:38.863Z,28.00
2018-09-11T07:25:08.059Z,28.80
2018-09-11T07:27:36.861Z,29.50
2018-09-11T07:30:06.092Z,30.10
2018-09-11T07:32:34.635Z,30.50
2018-09-11T07:35:03.083Z,30.60
2018-09-11T07:37:31.534Z,30.70
2018-09-11T07:39:59.858Z,30.60
2018-09-11T07:42:28.229Z,30.70
2018-09-11T07:44:56.588Z,30.40
2018-09-11T07:47:25.458Z,30.10
2018-09-11T07:49:53.987Z,29.90
2018-09-11T07:52:22.492Z,29.60
2018-09-11T07:54:50.839Z,29.30
2018-09-11T07:57:19.195Z,28.90
2018-09-11T07:59:47.537Z,29.30
2018-09-11T08:02:15.973Z,29.20
2018-09-11T08:04:44.341Z,29.50
2018-09-11T08:07:12.819Z,29.50
2018-09-11T08:09:41.276Z,29.40
2018-09-11T08:12:09.609Z,28.90
2018-09-11T08:14:38.001Z,28.60
2018-09-11T08:17:06.427Z,28.70
2018-09-11T08:19:34.748Z,28.40
2018-09-11T08:22:03.132Z,28.10
2018-09-11T08:24:31.600Z,27.80
2018-09-11T08:27:00.432Z,27.70
2018-09-11T08:29:29.104Z,27.60
2018-09-11T08:31:57.406Z,27.40
2018-09-11T08:34:25.964Z,27.40
2018-09-11T08:36:55.116Z,27.40
2018-09-11T08:39:24.743Z,27.20
2018-09-11T08:41:53.114Z,26.80
2018-09-11T08:44:21.805Z,26.70
2018-09-11T08:46:50.534Z,26.50
2018-09-11T08:49:18.864Z,25.80
2018-09-11T08:51:47.380Z,25.60
2018-09-11T08:54:16.125Z,25.80
2018-09-11T08:56:44.696Z,25.90
2018-09-11T08:59:13.741Z,26.10
2018-09-11T09:01:42.047Z,26.40
2018-09-11T09:04:10.439Z,26.70
2018-09-11T09:06:38.857Z,26.80
2018-09-11T09:09:10.393Z,26.70
2018-09-11T09:11:40.230Z,26.50
2018-09-11T09:14:09.031Z,26.40
2018-09-11T09:16:37.460Z,26.60
2018-09-11T09:19:05.889Z,26.40
2018-09-11T09:21:34.224Z,26.10
2018-09-11T09:24:02.675Z,26.40
2018-09-11T09:26:31.203Z,26.40
2018-09-11T09:28:59.647Z,26.40
2018-09-11T09:31:27.969Z,26.60
2018-09-11T09:33:56.327Z,26.30
2018-09-11T09:36:24.799Z,26.30
2018-09-11T09:38:53.183Z,26.40
2018-09-11T09:41:22.242Z,26.50
2018-09-11T09:43:50.943Z,26.50
2018-09-11T09:46:19.529Z,26.90
2018-09-11T09:48:48.241Z,26.90
2018-09-11T09:51:16.549Z,27.10
2018-09-11T09:53:45.633Z,27.40
2018-09-11T09:56:14.013Z,27.20
2018-09-11T09:58:42.645Z,26.90
2018-09-11T10:01:16.272Z,27.10
2018-09-11T10:03:45.415Z,27.30
2018-09-11T10:06:14.481Z,27.30
2018-09-11T10:08:42.876Z,27.50
2018-09-11T10:11:11.865Z,27.60
2018-09-11T10:13:40.951Z,27.60
2018-09-11T10:16:09.384Z,27.70
2018-09-11T10:18:37.783Z,27.90
2018-09-11T10:21:06.405Z,28.50
2018-09-11T10:23:34.782Z,28.70
2018-09-11T10:26:03.178Z,28.40
2018-09-11T10:28:31.574Z,28.20
2018-09-11T10:30:59.882Z,28.00
2018-09-11T10:33:28.608Z,28.00
2018-09-11T10:35:57.657Z,27.80
2018-09-11T10:38:25.975Z,27.80
2018-09-11T10:40:55.055Z,28.10
2018-09-11T10:43:23.453Z,28.00
2018-09-11T10:45:51.792Z,27.90
2018-09-11T10:48:20.105Z,27.70
2018-09-11T10:50:48.562Z,28.00
2018-09-11T10:53:16.894Z,28.40
2018-09-11T10:55:45.260Z,28.40
2018-09-11T10:58:13.619Z,28.30
2018-09-11T11:00:42.077Z,28.60
2018-09-11T11:03:10.460Z,28.50
2018-09-11T11:05:38.821Z,28.50
2018-09-11T11:08:07.339Z,28.80
2018-09-11T11:10:35.788Z,28.80
2018-09-11T11:13:04.198Z,28.80
2018-09-11T11:15:32.517Z,28.60
2018-09-11T11:18:00.892Z,28.40
2018-09-11T11:20:29.296Z,28.50
2018-09-11T11:22:58.147Z,28.80
2018-09-11T11:25:26.531Z,28.90
2018-09-11T11:27:54.894Z,28.80
2018-09-11T11:30:23.317Z,29.00
2018-09-11T11:32:51.967Z,29.10
2018-09-11T11:35:20.280Z,29.20
2018-09-11T11:37:48.644Z,29.00
2018-09-11T11:40:17.025Z,29.10
2018-09-11T11:42:45.515Z,29.00
2018-09-11T11:45:14.112Z,28.90
2018-09-11T11:47:42.491Z,29.00
2018-09-11T11:50:10.891Z,29.20
2018-09-11T11:52:39.266Z,29.40
2018-09-11T11:55:07.728Z,29.50
2018-09-11T11:57:36.042Z,29.20
2018-09-11T12:00:04.500Z,29.10
2018-09-11T12:02:32.929Z,29.10
2018-09-11T12:05:01.325Z,29.10
2018-09-11T12:07:29.686Z,29.20
2018-09-11T12:09:58.309Z,29.10
2018-09-11T12:12:26.826Z,29.00
2018-09-11T12:14:55.349Z,28.80
2018-09-11T12:17:23.747Z,28.50
2018-09-11T12:19:52.367Z,28.70
2018-09-11T12:22:20.795Z,28.90
2018-09-11T12:24:49.142Z,28.90
2018-09-11T12:27:17.537Z,28.80
2018-09-11T12:29:45.876Z,28.50
2018-09-11T12:32:14.694Z,28.20
2018-09-11T12:34:43.092Z,28.20
2018-09-11T12:37:11.533Z,28.10
2018-09-11T12:39:39.891Z,28.10
2018-09-11T12:42:08.248Z,28.20
2018-09-11T12:44:36.629Z,28.10
2018-09-11T12:47:06.002Z,28.10
2018-09-11T12:49:34.168Z,28.00
2018-09-11T12:52:02.612Z,27.90
2018-09-11T12:54:31.024Z,27.80
2018-09-11T12:56:59.451Z,27.70
2018-09-11T12:59:27.785Z,27.70
2018-09-11T13:01:56.166Z,27.80
2018-09-11T13:04:24.554Z,27.70
2018-09-11T13:06:52.918Z,27.60
2018-09-11T13:09:21.302Z,27.40
2018-09-11T13:11:49.637Z,27.40
2018-09-11T13:14:17.966Z,27.30
2018-09-11T13:16:46.273Z,27.40
2018-09-11T13:19:14.668Z,27.50
2018-09-11T13:21:43.132Z,27.60
2018-09-11T13:24:11.588Z,27.50
2018-09-11T13:26:39.999Z,27.40
2018-09-11T13:29:08.341Z,27.40
2018-09-11T13:31:36.716Z,27.30
2018-09-11T13:34:05.170Z,27.40
2018-09-11T13:36:33.570Z,27.50
2018-09-11T13:39:01.921Z,27.40
2018-09-11T13:41:30.307Z,27.40
2018-09-11T13:43:58.653Z,27.40
2018-09-11T13:46:27.088Z,27.40
2018-09-11T13:48:55.583Z,27.50
2018-09-11T13:51:23.902Z,27.60
2018-09-11T13:53:52.263Z,27.70
2018-09-11T13:56:20.711Z,27.70
2018-09-11T13:58:49.143Z,27.60
2018-09-11T14:01:17.560Z,27.60
2018-09-11T14:03:45.964Z,27.60
2018-09-11T14:06:14.517Z,27.60
2018-09-11T14:08:42.926Z,27.60
2018-09-11T14:11:11.304Z,27.60
2018-09-11T14:13:39.814Z,27.60
2018-09-11T14:16:08.177Z,27.40
2018-09-11T14:18:36.599Z,27.40
2018-09-11T14:21:06.025Z,27.50
2018-09-11T14:23:34.427Z,27.50
2018-09-11T14:26:03.003Z,27.60
2018-09-11T14:28:31.365Z,27.50
2018-09-11T14:30:59.762Z,27.50
2018-09-11T14:33:28.183Z,27.40
2018-09-11T14:35:56.583Z,27.60
2018-09-11T14:38:24.969Z,27.50
2018-09-11T14:40:53.440Z,27.70
2018-09-11T14:43:21.829Z,27.50
2018-09-11T14:45:50.252Z,27.30
2018-09-11T14:48:18.677Z,27.30
2018-09-11T14:50:47.038Z,27.30
2018-09-11T14:53:15.413Z,27.30
2018-09-11T14:55:43.787Z,27.40
2018-09-11T14:58:12.127Z,27.40
2018-09-11T15:00:40.560Z,27.40
2018-09-11T15:03:08.859Z,27.30
2018-09-11T15:05:37.213Z,27.30
2018-09-11T15:08:05.764Z,27.20
2018-09-11T15:10:34.170Z,27.10
2018-09-11T15:13:02.570Z,26.90
2018-09-11T15:15:31.064Z,27.00
2018-09-11T15:17:59.623Z,27.00
2018-09-11T15:20:28.012Z,27.00
2018-09-11T15:22:57.081Z,26.90
2018-09-11T15:25:26.317Z,26.70
2018-09-11T15:27:55.061Z,26.70
2018-09-11T15:30:24.356Z,26.70
2018-09-11T15:32:53.456Z,26.80
2018-09-11T15:35:22.801Z,26.90
2018-09-11T15:37:52.115Z,27.00
2018-09-11T15:40:21.192Z,26.90
2018-09-11T15:42:49.926Z,26.80
2018-09-11T15:45:18.652Z,26.80
2018-09-11T15:47:47.204Z,26.70
2018-09-11T15:50:15.574Z,26.60
2018-09-11T15:52:43.956Z,26.50
2018-09-11T15:55:12.390Z,26.40
2018-09-11T15:57:40.824Z,26.30
2018-09-11T16:00:09.241Z,26.30
2018-09-11T16:02:37.575Z,26.20
2018-09-11T16:05:05.923Z,26.20
2018-09-11T16:07:34.348Z,26.20
2018-09-11T16:10:02.687Z,26.20
2018-09-11T16:12:31.101Z,26.10
2018-09-11T16:14:59.511Z,26.00
2018-09-11T16:17:27.921Z,26.00
2018-09-11T16:19:56.233Z,26.00
2018-09-11T16:22:24.613Z,26.00
2018-09-11T16:24:53.025Z,26.00
2018-09-11T16:27:21.320Z,25.90
2018-09-11T16:29:49.709Z,25.80
2018-09-11T16:32:18.085Z,25.70
2018-09-11T16:34:46.652Z,25.60
2018-09-11T16:37:15.058Z,25.50
2018-09-11T16:39:43.435Z,25.50
2018-09-11T16:42:11.855Z,25.50
2018-09-11T16:44:40.300Z,25.40
2018-09-11T16:47:08.606Z,25.20
2018-09-11T16:49:37.005Z,25.20
2018-09-11T16:52:05.464Z,25.10
2018-09-11T16:54:33.796Z,25.10
2018-09-11T16:57:02.246Z,25.00
2018-09-11T16:59:30.576Z,24.90
2018-09-11T17:01:58.978Z,24.80
2018-09-11T17:04:27.341Z,24.70
2018-09-11T17:06:55.685Z,24.60
2018-09-11T17:09:24.064Z,24.40
2018-09-11T17:11:52.475Z,24.30
2018-09-11T17:14:20.857Z,24.30
2018-09-11T17:16:49.215Z,24.20
2018-09-11T17:19:17.590Z,24.00
2018-09-11T17:21:45.995Z,23.80
2018-09-11T17:24:14.407Z,23.70
2018-09-11T17:26:42.791Z,23.60
2018-09-11T17:29:11.084Z,23.50
2018-09-11T17:31:40.444Z,23.40
2018-09-11T17:34:08.821Z,23.30
2018-09-11T17:36:37.223Z,23.10
2018-09-11T17:39:09.262Z,23.00
2018-09-11T17:41:38.003Z,22.90
2018-09-11T17:44:06.407Z,22.90
2018-09-11T17:46:34.771Z,22.70
2018-09-11T17:49:03.126Z,22.60
2018-09-11T17:51:31.525Z,22.50
2018-09-11T17:53:59.915Z,22.40
2018-09-11T17:56:28.385Z,22.30
2018-09-11T17:58:56.953Z,22.10
2018-09-11T18:01:25.481Z,22.00
2018-09-11T18:03:54.102Z,21.90
2018-09-11T18:06:22.679Z,21.90
2018-09-11T18:08:51.122Z,21.80
2018-09-11T18:11:19.550Z,21.70
2018-09-11T18:13:47.999Z,21.60
2018-09-11T18:16:16.548Z,21.60
2018-09-11T18:18:44.999Z,21.50
2018-09-11T18:21:13.507Z,21.40
2018-09-11T18:23:42.098Z,21.30
2018-09-11T18:26:10.554Z,21.30
2018-09-11T18:28:38.929Z,21.20
2018-09-11T18:31:07.432Z,21.10
2018-09-11T18:33:35.895Z,21.00
2018-09-11T18:36:04.568Z,20.90
2018-09-11T18:38:32.993Z,20.80
2018-09-11T18:41:01.343Z,20.70
2018-09-11T18:43:29.669Z,20.60
2018-09-11T18:45:58.009Z,20.60
2018-09-11T18:48:26.378Z,20.60
2018-09-11T18:50:54.840Z,20.50
2018-09-11T18:53:23.220Z,20.40
2018-09-11T18:55:51.568Z,20.40
2018-09-11T18:58:19.879Z,20.30
2018-09-11T19:00:48.390Z,20.20
2018-09-11T19:03:16.706Z,20.20
2018-09-11T19:05:45.012Z,20.20
2018-09-11T19:08:14.200Z,20.20
2018-09-11T19:10:43.627Z,20.20
2018-09-11T19:13:12.108Z,20.10
2018-09-11T19:15:40.744Z,20.00
2018-09-11T19:18:09.643Z,20.00
2018-09-11T19:20:39.152Z,20.00
2018-09-11T19:23:07.489Z,19.90
2018-09-11T19:25:36.271Z,19.90
2018-09-11T19:28:05.449Z,19.80
2018-09-11T19:30:34.343Z,19.80
2018-09-11T19:33:03.047Z,19.70
2018-09-11T19:35:32.112Z,19.60
2018-09-11T19:38:00.594Z,19.50
2018-09-11T19:40:29.053Z,19.50
2018-09-11T19:42:57.678Z,19.40
2018-09-11T19:45:26.585Z,19.40
2018-09-11T19:47:55.417Z,19.40
2018-09-11T19:50:24.152Z,19.40
2018-09-11T19:52:52.670Z,19.30
2018-09-11T19:55:21.264Z,19.30
2018-09-11T19:57:50.720Z,19.30
2018-09-11T20:00:19.212Z,19.30
2018-09-11T20:02:47.638Z,19.20
2018-09-11T20:05:16.328Z,19.20
2018-09-11T20:07:45.352Z,19.10
2018-09-11T20:10:14.183Z,19.10
2018-09-11T20:12:43.111Z,19.10
2018-09-11T20:15:11.592Z,19.00
2018-09-11T20:17:40.702Z,18.90
2018-09-11T20:20:09.135Z,19.00
2018-09-11T20:22:39.198Z,19.00
2018-09-11T20:25:08.439Z,19.10
2018-09-11T20:27:38.480Z,19.10
2018-09-11T20:30:07.012Z,19.10
2018-09-11T20:32:35.587Z,19.10
2018-09-11T20:35:04.079Z,19.00
2018-09-11T20:37:32.790Z,18.80
2018-09-11T20:40:01.063Z,18.80
2018-09-11T20:42:29.507Z,18.90
2018-09-11T20:44:57.845Z,18.80
2018-09-11T20:47:26.202Z,18.80
2018-09-11T20:49:54.595Z,18.70
2018-09-11T20:52:22.964Z,18.60
2018-09-11T20:54:51.407Z,18.50
2018-09-11T20:57:19.779Z,18.50
2018-09-11T20:59:48.169Z,18.40
2018-09-11T21:02:16.545Z,18.40
2018-09-11T21:04:45.031Z,18.40
2018-09-11T21:07:13.400Z,18.30
2018-09-11T21:09:42.007Z,18.20
2018-09-11T21:12:10.427Z,18.10
2018-09-11T21:14:38.828Z,18.10
2018-09-11T21:17:07.277Z,18.00
2018-09-11T21:19:35.718Z,17.90
2018-09-11T21:22:04.198Z,17.90
2018-09-11T21:24:32.869Z,17.80
2018-09-11T21:27:01.336Z,17.80
2018-09-11T21:29:29.726Z,17.70
2018-09-11T21:31:58.199Z,17.70
2018-09-11T21:34:26.675Z,17.70
2018-09-11T21:36:55.141Z,17.70
2018-09-11T21:39:23.516Z,17.70
2018-09-11T21:41:51.920Z,17.60
2018-09-11T21:44:20.333Z,17.50
2018-09-11T21:46:48.721Z,17.50
2018-09-11T21:49:17.063Z,17.40
2018-09-11T21:51:45.452Z,17.30
2018-09-11T21:54:13.827Z,17.30
2018-09-11T21:56:42.251Z,17.30
2018-09-11T21:59:10.965Z,17.30
2018-09-11T22:01:44.777Z,17.20
2018-09-11T22:04:13.252Z,17.20
2018-09-11T22:06:41.623Z,17.20
2018-09-11T22:09:11.026Z,17.20
2018-09-11T22:11:39.832Z,17.10
2018-09-11T22:14:08.928Z,17.10
2018-09-11T22:16:37.794Z,17.10
2018-09-11T22:19:06.693Z,17.10
2018-09-11T22:21:35.854Z,17.10
2018-09-11T22:24:04.460Z,17.00
2018-09-11T22:26:33.169Z,17.00
2018-09-11T22:29:01.596Z,17.00
2018-09-11T22:31:30.196Z,16.90
2018-09-11T22:33:58.574Z,16.90
2018-09-11T22:36:26.999Z,16.90
2018-09-11T22:38:55.483Z,16.80
2018-09-11T22:41:23.901Z,16.80
2018-09-11T22:43:52.624Z,16.80
2018-09-11T22:46:21.293Z,16.70
2018-09-11T22:48:49.649Z,16.70
2018-09-11T22:51:18.075Z,16.60
2018-09-11T22:53:46.425Z,16.60
2018-09-11T22:56:14.805Z,16.60
2018-09-11T22:58:43.191Z,16.60
2018-09-11T23:01:11.959Z,16.60
2018-09-11T23:03:40.299Z,16.60
2018-09-11T23:06:08.770Z,16.50
2018-09-11T23:08:37.345Z,16.60
2018-09-11T23:11:05.811Z,16.50
2018-09-11T23:13:34.204Z,16.50
2018-09-11T23:16:02.623Z,16.50
2018-09-11T23:18:31.035Z,16.40
2018-09-11T23:20:59.452Z,16.30
2018-09-11T23:23:27.797Z,16.30
2018-09-11T23:25:56.179Z,16.30
2018-09-11T23:28:24.571Z,16.30
2018-09-11T23:30:52.960Z,16.30
2018-09-11T23:33:21.383Z,16.30
2018-09-11T23:35:49.770Z,16.30
2018-09-11T23:38:18.145Z,16.30
2018-09-11T23:40:46.456Z,16.30
2018-09-11T23:43:14.795Z,16.30
2018-09-11T23:45:43.161Z,16.20
2018-09-11T23:48:11.536Z,16.20
2018-09-11T23:50:39.946Z,16.20
2018-09-11T23:53:08.322Z,16.20
2018-09-11T23:55:36.665Z,16.20
2018-09-11T23:58:05.133Z,16.20
